METAR Data
IDs: Format: Raw Decoded Include TAF

Data at: 2056 UTC 18 Apr 2021

LHKE 182045Z 12004KT 7000 -RA SCT007 OVC028 07/06 Q1017 R12/290095 TEMPO 5000 BR RMK WHT